Terminal Aerodrome Forecast
Issued by NWS

Home | Current Version | Previous Version | Text Only | Print | Product List | Glossary On
Versions: 1 2 3 4 5 6 7 8 9 10 11 12 13 14 15 16 17 18 19 20 21 22
000
FTUS45 KABQ 161100
TAFLVS
TAF
KLVS 161139Z 1612/1712 18008KT P6SM BKN006
      TEMPO 1612/1614 6SM BR BKN003
     FM161400 21007KT P6SM SCT006 BKN016
     FM161600 20011KT P6SM SCT020 BKN120
     FM162000 20012G22KT P6SM VCSH SCT060 BKN120
     FM170100 VRB06KT P6SM BKN100=

USA.gov is the U.S. government's official web portal to all federal, state and local government web resources and services.